MST,Max TemperatureF,Mean TemperatureF,Min TemperatureF,Max Dew PointF,MeanDew PointF,Min DewpointF,Max Humidity, Mean Humidity, Min Humidity, Max Sea Level PressureIn, Mean Sea Level PressureIn, Min Sea Level PressureIn, Max VisibilityMiles, Mean VisibilityMiles, Min VisibilityMiles, Max Wind SpeedMPH, Mean Wind SpeedMPH, Max Gust SpeedMPH,PrecipitationIn, CloudCover, Events, WindDirDegrees
2013-1-1,19,3,-13,7,-4,-16,96,81,57,30.54,30.31,30.10,10,8,1,13,7,,0.00,1,,335
2013-1-2,27,8,-16,11,-3,-19,87,75,49,30.52,30.44,30.31,10,10,10,15,7,,0.00,0,,309
2013-1-3,23,3,-17,2,-11,-22,86,70,35,30.69,30.55,30.43,10,10,10,14,6,,0.00,0,,253
2013-1-4,28,10,-8,9,-6,-14,76,61,38,30.60,30.45,30.30,10,10,10,13,7,,0.00,0,,241
2013-1-5,28,8,-11,9,-5,-17,87,65,43,30.64,30.50,30.38,10,10,10,9,6,,0.00,0,,234
2013-1-6,26,10,-7,9,-1,-12,87,68,46,30.52,30.31,30.08,10,10,10,9,5,,0.00,0,,222
2013-1-7,35,16,-2,11,3,-7,84,61,34,30.30,30.16,30.06,10,10,10,10,6,,0.00,0,,296
2013-1-8,35,22,10,23,14,3,96,70,51,30.40,30.21,30.08,10,10,10,16,9,,0.00,0,,326
2013-1-9,34,18,1,22,12,1,96,78,52,30.54,30.32,30.06,10,10,10,12,8,,0.00,0,,201
2013-1-10,30,22,10,25,18,8,100,82,69,29.99,29.62,29.46,10,5,0,28,11,36,0.05,6,Fog-Snow,205
2013-1-11,12,0,-15,5,-2,-18,100,77,51,30.07,29.75,29.54,10,6,0,20,11,21,0.00,5,Snow,284
2013-1-12,12,-5,-22,0,-13,-26,91,76,46,30.29,30.16,30.06,10,10,10,12,7,,0.00,2,,278
2013-1-13,7,-8,-24,-4,-13,-29,91,76,55,30.29,30.20,30.13,10,10,9,14,7,,0.00,3,,333
2013-1-14,6,-12,-29,-6,-17,-33,96,78,55,30.60,30.37,29.92,10,10,10,17,9,,0.00,0,,310
2013-1-15,17,4,-9,8,-1,-15,85,77,65,30.62,30.51,30.36,10,10,9,20,12,25,0.00,1,,309
2013-1-16,30,16,3,16,7,-1,92,76,51,30.61,30.50,30.37,10,10,7,20,12,25,0.00,1,,309
2013-1-17,33,14,-9,16,1,-11,91,69,37,30.69,30.57,30.45,10,10,10,13,6,,0.00,0,,256
2013-1-18,32,12,-9,16,0,-13,91,76,45,30.72,30.57,30.44,10,10,10,13,4,,0.00,0,,247
2013-1-19,37,18,-2,13,1,-7,83,63,24,30.65,30.53,30.42,10,10,10,13,8,,0.00,0,,265
2013-1-20,37,19,1,13,2,-4,80,63,31,30.57,30.45,30.32,10,10,10,13,8,,0.00,0,,290
2013-1-21,39,20,0,13,2,-7,76,59,23,30.56,30.45,30.35,10,10,10,14,8,,0.00,0,,274
2013-1-22,43,25,7,21,8,0,84,64,38,30.53,30.43,30.31,10,10,10,13,8,,0.00,0,,252
2013-1-23,36,18,1,21,10,-4,81,71,41,30.59,30.44,30.31,10,10,10,7,4,,0.00,1,,215
2013-1-24,36,31,26,33,27,20,100,85,59,30.33,30.26,30.20,10,8,2,10,4,,0.03,8,Rain-Snow,158
2013-1-25,35,32,30,34,33,30,100,99,92,30.32,30.23,30.09,10,4,0,15,2,,0.00,8,Fog-Rain,150
2013-1-26,33,32,30,34,32,30,100,100,93,30.19,29.95,29.75,10,3,0,7,2,,0.30,8,Fog-Rain-Snow,155
2013-1-27,37,30,23,32,28,22,100,93,67,29.93,29.83,29.69,10,4,0,25,6,34,0.11,7,Fog-Snow,177
2013-1-28,26,14,3,27,15,-3,100,86,73,30.00,29.78,29.66,10,5,1,23,8,30,0.06,7,Snow,303
2013-1-29,19,10,1,16,11,-3,93,83,70,30.18,29.96,29.83,10,4,0,28,13,41,0.01,7,Fog-Snow,308
2013-1-30,33,18,3,24,17,2,91,78,66,30.27,30.21,30.17,10,10,10,23,13,31,0.00,2,,312
2013-1-31,39,24,9,21,14,6,96,76,41,30.42,30.31,30.21,10,10,10,16,8,,0.00,0,,305